createdAt,value
2022-12-14T00:01:36.613Z,74.90
2022-12-14T00:04:03.743Z,72.00
2022-12-14T00:06:32.083Z,65.30
2022-12-14T00:09:00.479Z,67.00
2022-12-14T00:11:27.390Z,62.60
2022-12-14T00:13:56.255Z,64.50
2022-12-14T00:16:23.931Z,56.90
2022-12-14T00:18:52.588Z,56.30
2022-12-14T00:21:19.737Z,57.20
2022-12-14T00:23:47.124Z,68.90
2022-12-14T00:26:18.382Z,68.10
2022-12-14T00:28:45.653Z,77.40
2022-12-14T00:31:15.658Z,84.60
2022-12-14T00:33:42.614Z,81.70
2022-12-14T00:36:10.108Z,80.00
2022-12-14T00:38:40.292Z,82.20
2022-12-14T00:41:07.195Z,73.50
2022-12-14T00:43:34.029Z,68.10
2022-12-14T00:46:00.954Z,72.00
2022-12-14T00:48:28.052Z,67.50
2022-12-14T00:50:55.487Z,69.00
2022-12-14T00:53:22.938Z,82.50
2022-12-14T00:55:50.041Z,85.00
2022-12-14T00:58:19.482Z,102.00
2022-12-14T01:00:46.653Z,113.60
2022-12-14T01:03:13.644Z,86.70
2022-12-14T01:05:41.161Z,67.10
2022-12-14T01:08:08.163Z,58.60
2022-12-14T01:10:38.071Z,60.80
2022-12-14T01:13:04.911Z,52.80
2022-12-14T01:15:31.747Z,60.80
2022-12-14T01:17:58.530Z,58.10
2022-12-14T01:20:25.393Z,61.30
2022-12-14T01:22:56.333Z,68.10
2022-12-14T01:25:23.243Z,58.70
2022-12-14T01:27:50.210Z,65.40
2022-12-14T01:30:19.382Z,60.50
2022-12-14T01:32:47.088Z,58.70
2022-12-14T01:35:14.056Z,59.70
2022-12-14T01:37:40.908Z,52.50
2022-12-14T01:40:08.325Z,66.30
2022-12-14T01:42:36.184Z,79.20
2022-12-14T01:45:03.064Z,123.00
2022-12-14T01:47:39.645Z,161.40
2022-12-14T01:50:30.503Z,196.00
2022-12-14T01:53:00.125Z,171.10
2022-12-14T01:55:49.547Z,154.70
2022-12-14T01:58:23.172Z,160.80
2022-12-14T02:00:52.670Z,137.60
2022-12-14T02:03:25.551Z,89.80
2022-12-14T02:05:59.384Z,80.30
2022-12-14T02:08:26.303Z,81.00
2022-12-14T02:10:53.538Z,98.00
2022-12-14T02:13:32.994Z,100.00
2022-12-14T02:16:00.001Z,96.40
2022-12-14T02:18:28.638Z,66.40
2022-12-14T02:21:35.291Z,45.20
2022-12-14T02:24:08.902Z,46.60
2022-12-14T02:26:54.083Z,54.20
2022-12-14T02:29:33.048Z,46.60
2022-12-14T02:32:18.920Z,50.30
2022-12-14T02:35:37.992Z,49.30
2022-12-14T02:38:11.507Z,42.80
2022-12-14T02:41:06.390Z,42.20
2022-12-14T02:43:58.810Z,45.70
2022-12-14T02:46:29.345Z,41.40
2022-12-14T02:48:56.187Z,45.80
2022-12-14T02:51:32.607Z,43.60
2022-12-14T02:54:21.015Z,50.40
2022-12-14T02:56:51.536Z,48.10
2022-12-14T02:59:18.353Z,49.30
2022-12-14T03:01:47.212Z,38.30
2022-12-14T03:04:14.740Z,42.70
2022-12-14T03:07:00.160Z,47.00
2022-12-14T03:09:27.487Z,43.60
2022-12-14T03:12:07.589Z,49.70
2022-12-14T03:14:36.891Z,57.10
2022-12-14T03:17:10.665Z,51.50
2022-12-14T03:19:40.903Z,56.10
2022-12-14T03:22:09.238Z,61.30
2022-12-14T03:24:42.101Z,56.90
2022-12-14T03:29:43.307Z,55.20
2022-12-14T03:32:12.262Z,49.90
2022-12-14T03:34:47.317Z,50.00
2022-12-14T03:37:17.724Z,48.80
2022-12-14T03:39:44.547Z,36.70
2022-12-14T03:42:33.320Z,36.40
2022-12-14T03:45:05.051Z,37.50
2022-12-14T03:48:02.299Z,42.30
2022-12-14T03:50:37.815Z,49.80
2022-12-14T03:53:32.531Z,55.90
2022-12-14T03:56:37.874Z,46.10
2022-12-14T03:59:10.052Z,46.00
2022-12-14T04:01:55.232Z,36.50
2022-12-14T04:04:27.780Z,38.10
2022-12-14T04:07:23.507Z,34.70
2022-12-14T04:10:00.167Z,34.50
2022-12-14T04:12:51.546Z,35.90
2022-12-14T04:15:50.016Z,33.20
2022-12-14T04:18:44.127Z,26.70
2022-12-14T04:21:13.738Z,24.60
2022-12-14T04:24:01.716Z,24.80
2022-12-14T04:26:31.284Z,25.70
2022-12-14T04:29:18.792Z,26.60
2022-12-14T04:31:49.321Z,28.80
2022-12-14T04:34:18.600Z,27.20
2022-12-14T04:37:05.133Z,30.50
2022-12-14T04:39:41.456Z,49.70
2022-12-14T04:42:10.443Z,41.20
2022-12-14T04:44:39.126Z,42.60
2022-12-14T04:47:07.886Z,56.10
2022-12-14T04:49:51.106Z,57.00
2022-12-14T04:54:56.891Z,51.10
2022-12-14T04:57:23.729Z,50.80
2022-12-14T04:59:50.544Z,46.20
2022-12-14T05:02:36.361Z,46.10
2022-12-14T05:05:08.796Z,53.20
2022-12-14T05:07:45.103Z,105.20
2022-12-14T05:10:27.865Z,68.40
2022-12-14T05:13:09.015Z,74.10
2022-12-14T05:15:39.686Z,81.30
2022-12-14T05:18:09.756Z,74.50
2022-12-14T05:20:36.733Z,84.40
2022-12-14T05:23:03.552Z,71.40
2022-12-14T05:25:30.420Z,81.00
2022-12-14T05:27:57.293Z,95.50
2022-12-14T05:32:11.031Z,119.10
2022-12-14T05:34:38.033Z,109.40
2022-12-14T05:37:04.897Z,106.30
2022-12-14T05:39:31.770Z,91.10
2022-12-14T05:41:58.649Z,77.20
2022-12-14T05:44:25.526Z,66.60
2022-12-14T05:46:52.428Z,62.40
2022-12-14T05:49:19.334Z,50.30
2022-12-14T05:51:46.246Z,44.70
2022-12-14T05:54:13.090Z,35.70
2022-12-14T05:56:39.947Z,28.00
2022-12-14T05:59:09.181Z,28.20
2022-12-14T06:01:36.105Z,28.00
2022-12-14T06:04:05.529Z,26.90
2022-12-14T06:06:33.139Z,26.50
2022-12-14T06:08:59.996Z,28.10
2022-12-14T06:11:26.938Z,28.20
2022-12-14T06:13:53.810Z,36.50
2022-12-14T06:16:24.843Z,35.40
2022-12-14T06:18:53.642Z,34.80
2022-12-14T06:21:22.028Z,40.30
2022-12-14T06:23:53.796Z,36.60
2022-12-14T06:26:20.841Z,42.10
2022-12-14T06:28:49.984Z,33.00
2022-12-14T06:31:18.473Z,31.30
2022-12-14T06:33:45.499Z,41.20
2022-12-14T06:36:19.789Z,41.10
2022-12-14T06:38:50.073Z,33.70
2022-12-14T06:41:17.297Z,35.00
2022-12-14T06:43:44.216Z,34.80
2022-12-14T06:46:15.571Z,36.90
2022-12-14T06:48:43.048Z,48.80
2022-12-14T06:51:09.944Z,42.40
2022-12-14T06:53:39.111Z,40.60
2022-12-14T06:56:10.515Z,45.00
2022-12-14T06:58:37.704Z,38.10
2022-12-14T07:01:05.862Z,39.90
2022-12-14T07:03:32.975Z,40.80
2022-12-14T07:06:00.405Z,37.00
2022-12-14T07:08:27.752Z,44.30
2022-12-14T07:11:00.511Z,61.60
2022-12-14T07:13:29.783Z,42.00
2022-12-14T07:15:57.355Z,55.10
2022-12-14T07:18:24.288Z,74.80
2022-12-14T07:21:05.894Z,83.00
2022-12-14T07:23:34.303Z,85.70
2022-12-14T07:26:06.668Z,81.00
2022-12-14T07:31:01.683Z,94.30
2022-12-14T07:33:31.215Z,92.10
2022-12-14T07:36:10.343Z,90.50
2022-12-14T07:38:38.251Z,81.20
2022-12-14T07:41:08.394Z,80.90
2022-12-14T07:43:35.262Z,77.80
2022-12-14T07:46:03.342Z,85.90
2022-12-14T07:48:35.333Z,80.90
2022-12-14T07:51:11.238Z,80.90
2022-12-14T07:53:38.291Z,78.30
2022-12-14T07:56:12.653Z,70.80
2022-12-14T07:58:39.541Z,80.70
2022-12-14T08:01:22.590Z,74.50
2022-12-14T08:03:51.031Z,82.90
2022-12-14T08:06:18.509Z,83.70
2022-12-14T08:08:45.503Z,101.70
2022-12-14T08:11:12.792Z,93.90
2022-12-14T08:13:43.409Z,104.60
2022-12-14T08:16:15.354Z,107.50
2022-12-14T08:18:44.709Z,125.80
2022-12-14T08:21:12.406Z,142.40
2022-12-14T08:23:39.347Z,124.30
2022-12-14T08:26:08.521Z,115.70
2022-12-14T08:28:37.773Z,98.30
2022-12-14T08:31:06.229Z,83.60
2022-12-14T08:33:35.971Z,85.80
2022-12-14T08:36:13.162Z,80.80
2022-12-14T08:38:40.678Z,81.60
2022-12-14T08:41:08.969Z,70.20
2022-12-14T08:43:36.049Z,70.40
2022-12-14T08:46:03.008Z,66.40
2022-12-14T08:48:29.834Z,60.20
2022-12-14T08:51:06.577Z,53.30
2022-12-14T08:53:33.937Z,57.20
2022-12-14T08:56:05.355Z,58.60
2022-12-14T08:58:32.201Z,57.90
2022-12-14T09:01:06.412Z,62.40
2022-12-14T09:03:35.528Z,55.50
2022-12-14T09:06:06.893Z,53.70
2022-12-14T09:08:34.214Z,53.00
2022-12-14T09:11:01.539Z,47.50
2022-12-14T09:13:28.856Z,49.60
2022-12-14T09:16:06.707Z,48.60
2022-12-14T09:18:34.572Z,61.00
2022-12-14T09:21:01.491Z,59.20
2022-12-14T09:23:29.130Z,56.50
2022-12-14T09:26:02.884Z,68.40
2022-12-14T09:28:32.838Z,63.00
2022-12-14T09:31:04.861Z,56.80
2022-12-14T09:33:37.381Z,62.30
2022-12-14T09:36:05.774Z,52.80
2022-12-14T09:38:35.827Z,55.90
2022-12-14T09:41:08.009Z,58.10
2022-12-14T09:43:44.084Z,37.40
2022-12-14T09:46:23.440Z,37.40
2022-12-14T09:49:26.170Z,37.80
2022-12-14T09:55:31.912Z,46.20
2022-12-14T09:58:15.796Z,43.20
2022-12-14T10:00:51.618Z,59.20
2022-12-14T10:03:41.346Z,58.40
2022-12-14T10:06:59.716Z,51.20
2022-12-14T10:09:57.463Z,42.00
2022-12-14T10:12:34.536Z,43.20
2022-12-14T10:15:22.848Z,38.10
2022-12-14T10:18:17.547Z,42.10
2022-12-14T10:21:01.883Z,34.40
2022-12-14T10:23:31.449Z,38.20
2022-12-14T10:26:02.999Z,38.50
2022-12-14T10:28:56.389Z,33.80
2022-12-14T10:31:40.996Z,32.20
2022-12-14T10:34:23.122Z,34.90
2022-12-14T10:37:25.831Z,37.50
2022-12-14T10:40:17.757Z,35.20
2022-12-14T10:43:17.945Z,32.10
2022-12-14T10:46:26.459Z,39.10
2022-12-14T10:49:04.882Z,37.70
2022-12-14T10:51:38.559Z,30.10
2022-12-14T10:54:34.194Z,31.80
2022-12-14T10:57:01.329Z,31.10
2022-12-14T10:59:39.549Z,39.00
2022-12-14T11:02:27.682Z,33.00
2022-12-14T11:05:14.906Z,36.50
2022-12-14T11:07:45.825Z,40.00
2022-12-14T11:10:32.538Z,35.00
2022-12-14T11:13:05.880Z,37.90
2022-12-14T11:15:43.987Z,39.20
2022-12-14T11:18:24.345Z,31.40
2022-12-14T11:20:58.070Z,35.70
2022-12-14T11:23:39.352Z,38.50
2022-12-14T11:26:12.619Z,39.00
2022-12-14T11:28:41.563Z,33.10
2022-12-14T11:31:11.393Z,35.70
2022-12-14T11:33:45.408Z,35.40
2022-12-14T11:36:25.171Z,34.40
2022-12-14T11:39:24.991Z,38.50
2022-12-14T11:41:58.370Z,35.80
2022-12-14T11:44:26.388Z,42.70
2022-12-14T11:46:55.291Z,35.70
2022-12-14T11:49:27.960Z,44.50
2022-12-14T11:51:55.600Z,34.10
2022-12-14T11:54:22.408Z,38.70
2022-12-14T11:56:56.471Z,35.30
2022-12-14T11:59:23.339Z,44.70
2022-12-14T12:01:50.447Z,35.20
2022-12-14T12:04:17.592Z,36.00
2022-12-14T12:06:44.534Z,35.40
2022-12-14T12:09:34.914Z,40.50
2022-12-14T12:12:15.282Z,39.40
2022-12-14T12:14:42.436Z,39.00
2022-12-14T12:17:42.154Z,35.00
2022-12-14T12:20:16.161Z,39.70
2022-12-14T12:22:44.572Z,36.80
2022-12-14T12:25:26.520Z,32.60
2022-12-14T12:28:10.620Z,29.80
2022-12-14T12:30:39.761Z,41.70
2022-12-14T12:33:28.843Z,37.80
2022-12-14T12:35:56.610Z,37.30
2022-12-14T12:38:50.481Z,39.40
2022-12-14T12:41:20.428Z,33.80
2022-12-14T12:44:05.468Z,42.90
2022-12-14T12:47:07.228Z,42.60
2022-12-14T12:49:34.126Z,47.90
2022-12-14T12:52:06.581Z,41.40
2022-12-14T12:54:37.921Z,38.00
2022-12-14T12:57:06.105Z,40.60
2022-12-14T12:59:35.085Z,40.30
2022-12-14T13:02:13.113Z,39.70
2022-12-14T13:04:46.538Z,34.60
2022-12-14T13:07:30.308Z,36.90
2022-12-14T13:10:22.671Z,48.20
2022-12-14T13:12:56.315Z,36.20
2022-12-14T13:15:32.866Z,37.40
2022-12-14T13:18:48.770Z,34.80
2022-12-14T13:21:29.673Z,39.20
2022-12-14T13:23:59.570Z,36.40
2022-12-14T13:27:02.949Z,29.10
2022-12-14T13:30:07.391Z,31.70
2022-12-14T13:32:56.611Z,34.70
2022-12-14T13:35:47.980Z,32.60
2022-12-14T13:38:33.572Z,38.40
2022-12-14T13:41:19.132Z,35.20
2022-12-14T13:44:04.551Z,31.30
2022-12-14T13:46:31.583Z,31.10
2022-12-14T13:49:00.973Z,37.20
2022-12-14T13:51:31.908Z,38.00
2022-12-14T13:53:59.672Z,41.60
2022-12-14T13:56:33.645Z,50.30
2022-12-14T13:59:04.660Z,37.50
2022-12-14T14:01:51.624Z,37.80
2022-12-14T14:04:25.197Z,38.90
2022-12-14T14:06:53.474Z,37.10
2022-12-14T14:09:26.457Z,39.70
2022-12-14T14:12:25.570Z,38.70
2022-12-14T14:15:04.759Z,43.50
2022-12-14T14:17:47.083Z,47.30
2022-12-14T14:20:58.593Z,45.30
2022-12-14T14:23:31.388Z,47.00
2022-12-14T14:26:27.440Z,49.50
2022-12-14T14:29:32.056Z,47.50
2022-12-14T14:32:21.661Z,39.90
2022-12-14T14:34:49.437Z,36.40
2022-12-14T14:37:20.420Z,43.60
2022-12-14T14:40:20.692Z,41.70
2022-12-14T14:43:07.865Z,53.10
2022-12-14T14:45:38.731Z,47.10
2022-12-14T14:48:32.573Z,57.70
2022-12-14T14:51:12.072Z,62.00
2022-12-14T14:53:39.530Z,57.40
2022-12-14T14:56:35.373Z,47.90
2022-12-14T14:59:17.478Z,49.50
2022-12-14T15:01:50.509Z,52.90
2022-12-14T15:06:57.006Z,55.80
2022-12-14T15:09:31.113Z,53.30
2022-12-14T15:12:04.518Z,49.90
2022-12-14T15:14:35.099Z,45.30
2022-12-14T15:17:22.274Z,49.40
2022-12-14T15:19:50.206Z,46.10
2022-12-14T15:22:19.763Z,50.30
2022-12-14T15:24:48.867Z,52.10
2022-12-14T15:27:37.447Z,44.30
2022-12-14T15:30:13.435Z,45.10
2022-12-14T15:32:45.896Z,50.10
2022-12-14T15:35:18.751Z,49.10
2022-12-14T15:37:59.544Z,48.50
2022-12-14T15:40:27.883Z,49.20
2022-12-14T15:42:56.274Z,48.40
2022-12-14T15:45:34.721Z,54.30
2022-12-14T15:48:23.957Z,57.30
2022-12-14T15:50:55.272Z,49.70
2022-12-14T15:53:32.892Z,47.40
2022-12-14T15:56:06.762Z,49.40
2022-12-14T15:58:38.970Z,47.10
2022-12-14T16:01:23.182Z,53.50
2022-12-14T16:04:01.793Z,43.90
2022-12-14T16:06:29.133Z,49.70
2022-12-14T16:09:09.038Z,49.50
2022-12-14T16:11:45.856Z,53.70
2022-12-14T16:14:23.843Z,58.20
2022-12-14T16:16:53.245Z,58.00
2022-12-14T16:19:27.733Z,56.30
2022-12-14T16:22:19.151Z,53.20
2022-12-14T16:25:16.920Z,57.80
2022-12-14T16:27:50.176Z,62.00
2022-12-14T16:30:28.953Z,76.90
2022-12-14T16:33:16.353Z,59.20
2022-12-14T16:35:43.391Z,61.60
2022-12-14T16:38:18.475Z,51.20
2022-12-14T16:40:48.494Z,52.40
2022-12-14T16:43:28.837Z,52.20
2022-12-14T16:46:12.859Z,54.90
2022-12-14T16:48:41.990Z,51.80
2022-12-14T16:54:30.537Z,57.70
2022-12-14T16:57:05.821Z,55.90
2022-12-14T16:59:48.511Z,61.60
2022-12-14T17:02:31.648Z,50.80
2022-12-14T17:04:59.912Z,54.00
2022-12-14T17:07:30.730Z,46.60
2022-12-14T17:10:00.495Z,51.50
2022-12-14T17:12:33.254Z,50.80
2022-12-14T17:15:03.414Z,54.30
2022-12-14T17:17:34.217Z,56.10
2022-12-14T17:20:02.732Z,49.00
2022-12-14T17:22:31.560Z,49.00
2022-12-14T17:25:02.739Z,53.70
2022-12-14T17:27:32.417Z,54.60
2022-12-14T17:29:59.431Z,59.80
2022-12-14T17:32:29.847Z,56.30
2022-12-14T17:35:00.352Z,58.00
2022-12-14T17:37:31.135Z,56.10
2022-12-14T17:40:08.789Z,52.50
2022-12-14T17:42:35.851Z,60.40
2022-12-14T17:50:21.775Z,53.40
2022-12-14T17:52:52.339Z,59.40
2022-12-14T17:55:27.797Z,55.60
2022-12-14T17:58:01.187Z,60.80
2022-12-14T18:00:48.608Z,58.10
2022-12-14T18:03:16.776Z,59.90
2022-12-14T18:05:48.851Z,56.80
2022-12-14T18:08:22.653Z,60.10
2022-12-14T18:10:56.337Z,58.30
2022-12-14T18:13:23.914Z,61.70
2022-12-14T18:15:52.138Z,59.50
2022-12-14T18:18:20.977Z,56.70
2022-12-14T18:20:53.101Z,56.90
2022-12-14T18:23:25.823Z,57.30
